createdAt,value
2022-12-22T00:00:23.384Z,41.99
2022-12-22T00:03:09.760Z,41.73
2022-12-22T00:05:55.731Z,41.78
2022-12-22T00:08:41.459Z,40.57
2022-12-22T00:11:31.189Z,41.12
2022-12-22T00:14:17.606Z,41.54
2022-12-22T00:17:04.439Z,40.45
2022-12-22T00:19:50.284Z,41.19
2022-12-22T00:22:39.663Z,41.71
2022-12-22T00:25:26.215Z,41.57
2022-12-22T00:28:12.303Z,41.39
2022-12-22T00:31:00.599Z,40.84
2022-12-22T00:33:46.312Z,41.18
2022-12-22T00:36:33.212Z,40.22
2022-12-22T00:39:19.526Z,40.75
2022-12-22T00:42:05.401Z,40.35
2022-12-22T00:44:50.996Z,40.97
2022-12-22T00:47:45.924Z,40.70
2022-12-22T00:50:32.592Z,40.09
2022-12-22T00:53:19.617Z,40.78
2022-12-22T00:56:05.396Z,40.77
2022-12-22T00:58:51.637Z,40.49
2022-12-22T01:01:37.674Z,40.73
2022-12-22T01:04:23.904Z,40.51
2022-12-22T01:07:10.114Z,39.90
2022-12-22T01:09:56.211Z,40.52
2022-12-22T01:12:45.711Z,39.87
2022-12-22T01:15:36.496Z,40.92
2022-12-22T01:18:23.839Z,41.16
2022-12-22T01:21:11.090Z,41.34
2022-12-22T01:23:58.415Z,40.77
2022-12-22T01:26:44.724Z,40.28
2022-12-22T01:29:30.502Z,40.38
2022-12-22T01:32:16.826Z,41.25
2022-12-22T01:35:02.568Z,41.57
2022-12-22T01:37:50.111Z,40.65
2022-12-22T01:40:43.894Z,42.20
2022-12-22T01:43:43.926Z,41.42
2022-12-22T01:46:41.004Z,41.44
2022-12-22T01:49:41.206Z,41.34
2022-12-22T01:52:29.928Z,41.59
2022-12-22T01:55:21.161Z,41.89
2022-12-22T01:58:07.589Z,41.54
2022-12-22T02:00:53.788Z,40.99
2022-12-22T02:03:41.955Z,41.80
2022-12-22T02:06:33.901Z,42.06
2022-12-22T02:09:29.007Z,41.91
2022-12-22T02:12:29.060Z,40.90
2022-12-22T02:16:07.851Z,41.52
2022-12-22T02:19:04.561Z,41.72
2022-12-22T02:22:07.279Z,41.55
2022-12-22T02:25:09.015Z,42.56
2022-12-22T02:27:58.162Z,42.38
2022-12-22T02:30:45.341Z,42.05
2022-12-22T02:33:32.112Z,41.53
2022-12-22T02:36:33.662Z,41.79
2022-12-22T02:39:38.331Z,41.05
2022-12-22T02:42:53.001Z,41.38
2022-12-22T02:45:53.293Z,41.80
2022-12-22T02:48:51.344Z,41.43
2022-12-22T02:51:43.305Z,40.27
2022-12-22T02:54:30.773Z,40.54
2022-12-22T02:57:17.051Z,40.39
2022-12-22T03:00:02.812Z,39.99
2022-12-22T03:02:49.744Z,40.66
2022-12-22T03:05:35.611Z,41.30
2022-12-22T03:08:21.316Z,41.75
2022-12-22T03:11:07.144Z,41.55
2022-12-22T03:13:53.028Z,42.01
2022-12-22T03:16:38.797Z,41.44
2022-12-22T03:19:24.637Z,41.48
2022-12-22T03:22:10.518Z,39.64
2022-12-22T03:24:56.261Z,40.04
2022-12-22T03:27:23.732Z,40.50
2022-12-22T03:29:51.218Z,40.92
2022-12-22T03:32:18.782Z,40.84
2022-12-22T03:34:46.426Z,40.72
2022-12-22T03:37:13.963Z,40.95
2022-12-22T03:39:41.386Z,41.07
2022-12-22T03:42:31.433Z,40.67
2022-12-22T03:45:17.111Z,41.38
2022-12-22T03:47:44.686Z,40.97
2022-12-22T03:50:12.210Z,40.56
2022-12-22T03:52:39.645Z,40.35
2022-12-22T03:55:07.524Z,40.49
2022-12-22T03:57:35.163Z,41.24
2022-12-22T04:00:02.862Z,40.84
2022-12-22T04:02:39.712Z,40.63
2022-12-22T04:05:07.765Z,39.75
2022-12-22T04:07:35.275Z,40.31
2022-12-22T04:10:21.762Z,40.43
2022-12-22T04:12:55.353Z,39.82
2022-12-22T04:15:33.333Z,40.03
2022-12-22T04:18:01.004Z,39.76
2022-12-22T04:20:29.334Z,40.11
2022-12-22T04:22:57.785Z,40.07
2022-12-22T04:25:26.930Z,40.43
2022-12-22T04:27:54.400Z,39.78
2022-12-22T04:30:21.932Z,39.69
2022-12-22T04:32:49.516Z,39.50
2022-12-22T04:35:17.022Z,39.71
2022-12-22T04:37:44.521Z,39.96
2022-12-22T04:40:12.122Z,39.88
2022-12-22T04:42:40.031Z,40.72
2022-12-22T04:45:08.103Z,40.36
2022-12-22T04:47:35.603Z,39.31
2022-12-22T04:50:03.687Z,38.81
2022-12-22T04:52:31.172Z,38.67
2022-12-22T04:54:58.680Z,38.38
2022-12-22T04:57:26.224Z,38.31
2022-12-22T04:59:53.826Z,38.69
2022-12-22T05:02:22.144Z,39.00
2022-12-22T05:04:49.827Z,38.26
2022-12-22T05:07:17.420Z,38.05
2022-12-22T05:09:44.885Z,37.50
2022-12-22T05:12:31.013Z,36.96
2022-12-22T05:14:58.610Z,37.49
2022-12-22T05:17:26.238Z,37.97
2022-12-22T05:19:53.853Z,37.87
2022-12-22T05:22:21.472Z,38.10
2022-12-22T05:24:49.072Z,38.73
2022-12-22T05:27:16.646Z,37.65
2022-12-22T05:29:44.184Z,37.39
2022-12-22T05:32:11.794Z,36.55
2022-12-22T05:34:39.421Z,36.81
2022-12-22T05:37:07.034Z,36.61
2022-12-22T05:39:34.616Z,35.89
2022-12-22T05:42:02.309Z,36.46
2022-12-22T05:44:29.900Z,36.25
2022-12-22T05:46:57.588Z,36.92
2022-12-22T05:49:25.334Z,36.28
2022-12-22T05:51:56.178Z,35.82
2022-12-22T05:54:23.896Z,36.01
2022-12-22T05:56:51.582Z,35.98
2022-12-22T05:59:22.251Z,36.40
2022-12-22T06:01:52.999Z,36.38
2022-12-22T06:04:21.013Z,36.70
2022-12-22T06:06:49.242Z,35.96
2022-12-22T06:09:17.126Z,36.21
2022-12-22T06:11:48.061Z,35.47
2022-12-22T06:14:15.674Z,35.52
2022-12-22T06:16:43.347Z,34.47
2022-12-22T06:19:10.978Z,34.29
2022-12-22T06:21:41.799Z,33.49
2022-12-22T06:24:09.608Z,33.99
2022-12-22T06:26:37.422Z,33.85
2022-12-22T06:29:08.229Z,34.08
2022-12-22T06:31:36.291Z,34.06
2022-12-22T06:34:04.006Z,34.71
2022-12-22T06:36:31.653Z,34.12
2022-12-22T06:38:59.240Z,33.33
2022-12-22T06:41:47.176Z,32.78
2022-12-22T06:44:16.587Z,32.67
2022-12-22T06:46:44.066Z,33.24
2022-12-22T06:49:11.831Z,33.28
2022-12-22T06:51:42.518Z,32.95
2022-12-22T06:54:10.080Z,32.19
2022-12-22T06:56:40.711Z,31.78
2022-12-22T06:59:08.354Z,31.32
2022-12-22T07:01:36.224Z,31.13
2022-12-22T07:04:04.163Z,31.20
2022-12-22T07:06:34.135Z,30.89
2022-12-22T07:09:01.819Z,31.51
2022-12-22T07:11:45.125Z,31.16
2022-12-22T07:14:12.706Z,32.67
2022-12-22T07:16:40.328Z,32.52
2022-12-22T07:19:07.996Z,32.71
2022-12-22T07:21:35.572Z,32.67
2022-12-22T07:24:03.200Z,32.34
2022-12-22T07:26:31.147Z,30.83
2022-12-22T07:29:00.783Z,30.81
2022-12-22T07:31:28.557Z,30.79
2022-12-22T07:33:56.437Z,32.12
2022-12-22T07:36:34.003Z,31.84
2022-12-22T07:39:09.169Z,31.49
2022-12-22T07:41:55.115Z,31.30
2022-12-22T07:44:22.647Z,31.98
2022-12-22T07:46:50.667Z,32.34
2022-12-22T07:49:50.964Z,33.51
2022-12-22T07:52:18.554Z,33.89
2022-12-22T07:54:46.247Z,33.54
2022-12-22T07:57:13.950Z,34.04
2022-12-22T07:59:43.975Z,34.64
2022-12-22T08:02:13.104Z,34.85
2022-12-22T08:04:43.580Z,34.35
2022-12-22T08:07:11.464Z,35.04
2022-12-22T08:09:44.442Z,36.48
2022-12-22T08:12:12.133Z,36.36
2022-12-22T08:14:39.868Z,37.64
2022-12-22T08:17:07.505Z,36.32
2022-12-22T08:19:35.231Z,36.08
2022-12-22T08:22:05.366Z,38.08
2022-12-22T08:24:33.103Z,37.06
2022-12-22T08:27:06.569Z,38.59
2022-12-22T08:29:43.042Z,37.73
2022-12-22T08:32:11.827Z,35.02
2022-12-22T08:34:39.950Z,38.45
2022-12-22T08:37:13.703Z,36.23
2022-12-22T08:39:45.049Z,37.81
2022-12-22T08:42:15.130Z,36.88
2022-12-22T08:44:46.379Z,38.20
2022-12-22T08:47:17.059Z,38.67
2022-12-22T08:49:45.326Z,39.18
2022-12-22T08:52:18.430Z,37.64
2022-12-22T08:54:47.146Z,39.89
2022-12-22T08:57:14.969Z,37.70
2022-12-22T08:59:42.784Z,38.92
2022-12-22T09:02:10.719Z,37.73
2022-12-22T09:04:38.583Z,38.62
2022-12-22T09:07:09.809Z,40.26
2022-12-22T09:09:37.667Z,39.84
2022-12-22T09:12:05.893Z,36.98
2022-12-22T09:14:34.069Z,38.62
2022-12-22T09:17:01.962Z,40.04
2022-12-22T09:19:29.802Z,37.27
2022-12-22T09:21:57.835Z,39.85
2022-12-22T09:24:25.854Z,40.28
2022-12-22T09:26:53.624Z,37.23
2022-12-22T09:29:21.387Z,35.60
2022-12-22T09:31:49.374Z,38.10
2022-12-22T09:34:18.632Z,38.82
2022-12-22T09:36:47.684Z,36.46
2022-12-22T09:39:16.801Z,35.89
2022-12-22T09:41:51.570Z,36.90
2022-12-22T09:44:27.024Z,37.04
2022-12-22T09:46:57.821Z,38.04
2022-12-22T09:49:26.072Z,37.38
2022-12-22T09:51:58.618Z,39.16
2022-12-22T09:54:27.545Z,38.73
2022-12-22T09:56:56.141Z,39.17
2022-12-22T09:59:28.383Z,36.55
2022-12-22T10:02:27.735Z,38.04
2022-12-22T10:05:12.785Z,37.02
2022-12-22T10:07:42.592Z,39.49
2022-12-22T10:10:25.600Z,36.93
2022-12-22T10:12:56.555Z,37.06
2022-12-22T10:15:25.206Z,36.31
2022-12-22T10:17:55.061Z,34.84
2022-12-22T10:20:28.133Z,38.98
2022-12-22T10:23:00.444Z,39.27
2022-12-22T10:26:26.410Z,39.19
2022-12-22T10:28:45.135Z,37.04
2022-12-22T10:31:27.392Z,37.97
2022-12-22T10:33:57.887Z,39.20
2022-12-22T10:36:28.547Z,37.98
2022-12-22T10:39:02.640Z,38.67
2022-12-22T10:41:37.041Z,38.18
2022-12-22T10:44:19.645Z,38.57
2022-12-22T10:46:56.036Z,38.82
2022-12-22T10:49:27.516Z,39.22
2022-12-22T10:52:15.546Z,36.73
2022-12-22T10:54:45.307Z,36.85
2022-12-22T10:57:16.965Z,39.51
2022-12-22T11:00:14.653Z,38.67
2022-12-22T11:02:52.222Z,39.99
2022-12-22T11:05:20.772Z,39.43
2022-12-22T11:07:48.694Z,39.85
2022-12-22T11:10:53.619Z,40.79
2022-12-22T11:13:38.594Z,38.80
2022-12-22T11:16:39.331Z,41.21
2022-12-22T11:19:43.069Z,41.31
2022-12-22T11:22:21.674Z,39.74
2022-12-22T11:25:13.183Z,41.26
2022-12-22T11:27:47.203Z,39.98
2022-12-22T11:30:20.922Z,40.99
2022-12-22T11:32:48.420Z,40.93
2022-12-22T11:35:28.002Z,41.17
2022-12-22T11:38:12.745Z,41.56
2022-12-22T11:40:47.347Z,40.69
2022-12-22T11:43:40.191Z,40.27
2022-12-22T11:46:17.453Z,40.61
2022-12-22T11:49:18.692Z,41.19
2022-12-22T11:52:21.344Z,41.81
2022-12-22T11:55:01.254Z,40.44
2022-12-22T11:57:43.033Z,41.60
2022-12-22T12:00:14.388Z,40.39
2022-12-22T12:02:57.219Z,41.12
2022-12-22T12:05:39.288Z,41.70
2022-12-22T12:08:06.792Z,41.48
2022-12-22T12:11:18.471Z,43.44
2022-12-22T12:14:20.440Z,43.60
2022-12-22T12:17:24.773Z,43.57
2022-12-22T12:20:12.085Z,44.87
2022-12-22T12:23:02.691Z,45.33
2022-12-22T12:25:30.208Z,45.73
2022-12-22T12:28:06.918Z,44.64
2022-12-22T12:30:45.557Z,44.02
2022-12-22T12:33:44.973Z,44.32
2022-12-22T12:36:15.274Z,43.38
2022-12-22T12:39:08.490Z,44.41
2022-12-22T12:41:55.155Z,43.56
2022-12-22T12:44:29.215Z,44.25
2022-12-22T12:47:05.896Z,43.57
2022-12-22T12:49:36.595Z,43.45
2022-12-22T12:52:04.810Z,43.32
2022-12-22T12:54:39.795Z,43.45
2022-12-22T12:57:26.061Z,43.23
2022-12-22T12:59:59.034Z,43.25
2022-12-22T13:02:32.661Z,43.10
2022-12-22T13:05:12.430Z,42.78
2022-12-22T13:08:05.699Z,42.82
2022-12-22T13:10:41.086Z,42.74
2022-12-22T13:13:14.237Z,42.75
2022-12-22T13:15:45.375Z,42.63
2022-12-22T13:18:16.291Z,43.08
2022-12-22T13:20:45.446Z,42.73
2022-12-22T13:23:15.593Z,42.62
2022-12-22T13:25:53.415Z,42.86
2022-12-22T13:28:23.501Z,42.29
2022-12-22T13:30:58.388Z,42.11
2022-12-22T13:33:30.838Z,42.35
2022-12-22T13:35:59.679Z,42.75
2022-12-22T13:38:31.348Z,43.06
2022-12-22T13:41:02.959Z,42.20
2022-12-22T13:43:33.304Z,42.96
2022-12-22T13:46:03.175Z,42.56
2022-12-22T13:48:39.995Z,42.83
2022-12-22T13:51:27.796Z,43.64
2022-12-22T13:54:08.302Z,43.48
2022-12-22T13:56:48.663Z,43.90
2022-12-22T13:59:42.624Z,44.57
2022-12-22T14:02:10.223Z,43.72
2022-12-22T14:04:40.528Z,43.48
2022-12-22T14:07:26.179Z,43.56
2022-12-22T14:09:56.934Z,44.64
2022-12-22T14:12:32.104Z,44.12
2022-12-22T14:15:03.558Z,43.40
2022-12-22T14:17:37.011Z,43.95
2022-12-22T14:20:27.381Z,43.60
2022-12-22T14:23:01.958Z,42.92
2022-12-22T14:25:36.649Z,43.03
2022-12-22T14:28:07.075Z,42.93
2022-12-22T14:30:42.453Z,43.37
2022-12-22T14:33:28.100Z,43.04
2022-12-22T14:36:23.649Z,43.40
2022-12-22T14:38:54.040Z,43.71
2022-12-22T14:41:42.294Z,42.93
2022-12-22T14:44:18.690Z,42.63
2022-12-22T14:47:02.918Z,42.77
2022-12-22T14:49:30.657Z,42.60
2022-12-22T14:52:08.524Z,43.05
2022-12-22T14:54:36.209Z,42.51
2022-12-22T14:57:16.387Z,42.85
2022-12-22T14:59:59.432Z,42.63
2022-12-22T15:02:40.631Z,42.31
2022-12-22T15:05:33.567Z,42.85
2022-12-22T15:08:07.422Z,41.95
2022-12-22T15:10:46.372Z,43.04
2022-12-22T15:13:27.745Z,42.48
2022-12-22T15:15:55.432Z,42.68
2022-12-22T15:18:27.826Z,43.11
2022-12-22T15:20:56.921Z,42.89
2022-12-22T15:23:24.597Z,42.81
2022-12-22T15:25:52.435Z,45.26
2022-12-22T15:28:20.000Z,42.95
2022-12-22T15:30:47.696Z,45.03
2022-12-22T15:33:18.193Z,44.83
2022-12-22T15:35:46.777Z,43.00
2022-12-22T15:38:23.090Z,42.96
2022-12-22T15:40:51.147Z,43.10
2022-12-22T15:46:07.660Z,43.13
2022-12-22T15:48:38.620Z,43.35
2022-12-22T15:51:09.376Z,43.33
2022-12-22T15:53:37.569Z,43.29
2022-12-22T15:56:05.361Z,43.32
2022-12-22T15:58:36.832Z,43.79
2022-12-22T16:01:04.694Z,44.21
2022-12-22T16:03:32.392Z,44.53
2022-12-22T16:06:01.036Z,45.29
2022-12-22T16:08:33.402Z,44.88
2022-12-22T16:11:02.045Z,44.41
2022-12-22T16:13:30.082Z,44.28
2022-12-22T16:15:58.706Z,44.99
2022-12-22T16:18:26.479Z,45.31
2022-12-22T16:20:54.790Z,45.74
2022-12-22T16:23:27.620Z,45.24
2022-12-22T16:26:02.067Z,45.85
2022-12-22T16:28:30.694Z,45.81
2022-12-22T16:30:58.611Z,46.41
2022-12-22T16:33:26.386Z,45.83
2022-12-22T16:35:54.190Z,45.42
2022-12-22T16:38:22.620Z,45.17
2022-12-22T16:40:54.050Z,45.19
2022-12-22T16:46:24.223Z,45.95
2022-12-22T16:48:56.282Z,46.11
2022-12-22T16:51:37.560Z,46.14
2022-12-22T16:54:05.173Z,45.63
2022-12-22T16:56:33.276Z,45.97
2022-12-22T16:59:03.261Z,46.02
2022-12-22T17:01:44.269Z,46.05
2022-12-22T17:04:20.680Z,46.21
2022-12-22T17:06:53.584Z,46.12
2022-12-22T17:09:33.098Z,47.37
2022-12-22T17:12:03.656Z,46.45
2022-12-22T17:14:42.568Z,46.16
2022-12-22T17:17:16.806Z,47.90
2022-12-22T17:19:45.358Z,46.34
2022-12-22T17:22:31.323Z,46.95
2022-12-22T17:25:02.539Z,47.10
2022-12-22T17:27:33.247Z,47.24
2022-12-22T17:30:03.927Z,47.40
2022-12-22T17:32:31.890Z,47.03
2022-12-22T17:34:59.438Z,47.01
2022-12-22T17:37:26.963Z,46.99
2022-12-22T17:40:01.035Z,47.06
2022-12-22T17:42:31.820Z,47.40
2022-12-22T17:44:59.500Z,48.48
2022-12-22T17:47:33.408Z,48.26
2022-12-22T17:50:02.496Z,50.31
2022-12-22T17:52:31.322Z,53.76
2022-12-22T17:54:59.288Z,50.05
2022-12-22T17:57:31.411Z,50.91
2022-12-22T17:59:59.084Z,49.22
2022-12-22T18:02:27.193Z,51.90
2022-12-22T18:04:54.903Z,50.09
2022-12-22T18:07:24.819Z,52.50
2022-12-22T18:09:58.016Z,49.82
2022-12-22T18:12:26.224Z,48.59
2022-12-22T18:14:53.862Z,48.15
2022-12-22T18:17:35.811Z,48.39
2022-12-22T18:20:04.204Z,48.48
2022-12-22T18:22:31.733Z,50.61
2022-12-22T18:24:59.209Z,48.82
2022-12-22T18:27:26.704Z,50.83
2022-12-22T18:29:54.182Z,49.27
2022-12-22T18:32:27.414Z,48.78
2022-12-22T18:34:55.590Z,49.00
2022-12-22T18:37:23.193Z,51.66
2022-12-22T18:39:50.701Z,57.35
2022-12-22T18:42:26.567Z,64.82
2022-12-22T18:44:54.153Z,71.86
2022-12-22T18:47:21.737Z,78.25
2022-12-22T18:49:49.364Z,82.51
2022-12-22T18:52:22.726Z,88.76
2022-12-22T18:54:50.350Z,93.96
2022-12-22T18:57:20.201Z,96.47
2022-12-22T18:59:50.983Z,98.84
2022-12-22T19:02:28.769Z,100.00
2022-12-22T19:04:57.358Z,100.00
2022-12-22T19:07:29.797Z,100.00
2022-12-22T19:10:09.751Z,100.00
2022-12-22T19:12:37.337Z,100.00
2022-12-22T19:15:06.581Z,100.00
2022-12-22T19:17:34.431Z,100.00
2022-12-22T19:20:01.887Z,100.00
2022-12-22T19:22:31.284Z,100.00
2022-12-22T19:24:59.268Z,100.00
2022-12-22T19:27:28.185Z,100.00
2022-12-22T19:30:03.640Z,100.00
2022-12-22T19:32:42.208Z,100.00
2022-12-22T19:35:21.211Z,100.00
2022-12-22T19:37:50.748Z,100.00
2022-12-22T19:40:20.631Z,100.00
2022-12-22T19:42:50.610Z,100.00
2022-12-22T19:45:27.192Z,100.00
2022-12-22T19:47:57.385Z,100.00
2022-12-22T19:50:27.356Z,100.00
2022-12-22T19:52:56.631Z,100.00
2022-12-22T19:55:44.664Z,100.00
2022-12-22T19:58:39.830Z,100.00
2022-12-22T20:01:26.617Z,100.00
2022-12-22T20:04:12.954Z,100.00
2022-12-22T20:06:40.435Z,100.00
2022-12-22T20:09:07.880Z,100.00
2022-12-22T20:11:35.446Z,100.00
2022-12-22T20:14:03.104Z,100.00
2022-12-22T20:16:30.609Z,100.00
2022-12-22T20:18:58.103Z,100.00
2022-12-22T20:21:29.715Z,100.00
2022-12-22T20:23:59.889Z,100.00
2022-12-22T20:26:28.140Z,100.00
2022-12-22T20:28:55.621Z,100.00
2022-12-22T20:31:24.585Z,100.00
2022-12-22T20:33:55.207Z,100.00
2022-12-22T20:36:26.640Z,100.00
2022-12-22T20:38:55.878Z,100.00
2022-12-22T20:41:24.198Z,100.00
2022-12-22T20:43:53.702Z,100.00
2022-12-22T20:46:27.897Z,100.00
2022-12-22T20:48:59.400Z,100.00
2022-12-22T20:51:30.730Z,100.00
2022-12-22T20:53:58.780Z,100.00
2022-12-22T20:56:26.146Z,100.00
2022-12-22T20:58:54.552Z,100.00
2022-12-22T21:01:23.201Z,100.00
2022-12-22T21:03:51.137Z,100.00
2022-12-22T21:06:29.510Z,100.00
2022-12-22T21:08:59.281Z,100.00
2022-12-22T21:11:28.415Z,100.00
2022-12-22T21:13:56.741Z,100.00
2022-12-22T21:16:27.037Z,100.00
2022-12-22T21:18:55.074Z,100.00
2022-12-22T21:21:23.087Z,100.00
2022-12-22T21:23:51.690Z,100.00
2022-12-22T21:26:21.956Z,100.00
2022-12-22T21:28:50.240Z,100.00
2022-12-22T21:31:17.912Z,100.00
2022-12-22T21:33:45.829Z,100.00
2022-12-22T21:36:21.018Z,100.00
2022-12-22T21:38:49.900Z,100.00
2022-12-22T21:41:17.328Z,100.00
2022-12-22T21:43:44.895Z,100.00
2022-12-22T21:46:13.782Z,100.00
2022-12-22T21:48:41.427Z,100.00
2022-12-22T21:51:12.342Z,100.00
2022-12-22T21:53:39.772Z,100.00
2022-12-22T21:56:17.954Z,100.00
2022-12-22T21:58:45.841Z,100.00
2022-12-22T22:01:16.383Z,100.00
2022-12-22T22:03:44.039Z,100.00
2022-12-22T22:06:11.849Z,100.00
2022-12-22T22:08:39.335Z,100.00
2022-12-22T22:11:17.490Z,100.00
2022-12-22T22:13:45.168Z,100.00
2022-12-22T22:16:12.986Z,100.00
2022-12-22T22:18:42.197Z,100.00
2022-12-22T22:21:11.696Z,100.00
2022-12-22T22:23:40.001Z,100.00
2022-12-22T22:26:08.233Z,100.00
2022-12-22T22:28:36.175Z,100.00
2022-12-22T22:31:10.515Z,100.00
2022-12-22T22:33:38.331Z,100.00
2022-12-22T22:36:09.191Z,100.00
2022-12-22T22:38:36.888Z,100.00
2022-12-22T22:41:04.699Z,100.00
2022-12-22T22:43:32.222Z,100.00
2022-12-22T22:45:59.665Z,100.00
2022-12-22T22:48:27.202Z,100.00
2022-12-22T22:50:54.778Z,100.00
2022-12-22T22:53:22.274Z,100.00
2022-12-22T22:55:49.727Z,100.00
2022-12-22T22:58:17.339Z,100.00
2022-12-22T23:00:44.894Z,100.00
2022-12-22T23:03:12.606Z,100.00
2022-12-22T23:05:40.166Z,100.00
2022-12-22T23:08:07.750Z,100.00
2022-12-22T23:10:41.397Z,100.00
2022-12-22T23:13:09.814Z,100.00
2022-12-22T23:15:37.548Z,100.00
2022-12-22T23:18:05.235Z,100.00
2022-12-22T23:20:32.694Z,100.00
2022-12-22T23:23:00.289Z,100.00
2022-12-22T23:25:28.098Z,100.00
2022-12-22T23:27:55.606Z,100.00
2022-12-22T23:30:23.177Z,100.00
2022-12-22T23:32:50.657Z,100.00
2022-12-22T23:35:18.076Z,100.00
2022-12-22T23:37:45.615Z,100.00
2022-12-22T23:43:01.478Z,100.00
2022-12-22T23:45:29.839Z,100.00
2022-12-22T23:47:57.491Z,100.00
2022-12-22T23:50:25.674Z,100.00
2022-12-22T23:52:54.371Z,100.00
2022-12-22T23:55:21.922Z,100.00
2022-12-22T23:57:54.060Z,100.00
